Gordon, Nebraska
Current Conditions -  °F | °C
As of 9:52 PM on Saturday 25 Oct 2014 (Local Time) from KIEN Reporting Station
Clear Clear  
Wind Chill: 60°   Ceiling: Unl
Heat Index: 60°   Visibility: 10mi
Dew Point: 40°   Wind: 14mph
Humidity: 47%   Direction: 160°SSE
Pressure: 29.89"   Gusts: 23mph
Location:  42.8°N, 102.2°W
Report Text: KIEN 260352Z AUTO 16012G20KT 10SM CLR 16/04 A2989 RMK AO2 SLP115 T01560044
Loading
Personal Weather Stations






























Interactive Weather Map
Tropical Storm Tracking
New forecast layout! Learn more

10-Day Weather Forecast

Advertisements
Track Severe Weather on mobile